createdAt,value
2023-05-24T00:01:37.812Z,74.24
2023-05-24T00:04:07.327Z,74.87
2023-05-24T00:06:37.426Z,74.46
2023-05-24T00:09:05.077Z,75.15
2023-05-24T00:11:32.096Z,75.24
2023-05-24T00:13:59.208Z,74.74
2023-05-24T00:16:29.458Z,75.20
2023-05-24T00:18:58.260Z,75.31
2023-05-24T00:21:27.876Z,74.09
2023-05-24T00:23:54.908Z,74.76
2023-05-24T00:26:21.903Z,75.47
2023-05-24T00:28:51.347Z,75.60
2023-05-24T00:31:18.337Z,76.29
2023-05-24T00:33:47.835Z,75.68
2023-05-24T00:36:14.872Z,75.81
2023-05-24T00:38:44.060Z,75.29
2023-05-24T00:41:12.300Z,75.00
2023-05-24T00:43:43.356Z,74.52
2023-05-24T00:46:15.607Z,74.82
2023-05-24T00:48:43.415Z,74.28
2023-05-24T00:51:15.345Z,74.93
2023-05-24T00:53:46.534Z,75.05
2023-05-24T00:56:15.263Z,75.24
2023-05-24T00:58:44.926Z,75.63
2023-05-24T01:01:12.826Z,75.27
2023-05-24T01:03:40.228Z,74.96
2023-05-24T01:06:10.742Z,74.47
2023-05-24T01:08:46.199Z,75.58
2023-05-24T01:11:33.631Z,74.63
2023-05-24T01:14:26.780Z,73.61
2023-05-24T01:16:58.332Z,73.90
2023-05-24T01:19:47.273Z,74.72
2023-05-24T01:22:40.772Z,73.96
2023-05-24T01:25:45.206Z,73.29
2023-05-24T01:28:16.116Z,73.15
2023-05-24T01:30:45.809Z,72.03
2023-05-24T01:33:21.357Z,71.81
2023-05-24T01:35:48.319Z,72.51
2023-05-24T01:38:16.161Z,71.70
2023-05-24T01:40:44.997Z,72.15
2023-05-24T01:43:53.819Z,72.66
2023-05-24T01:46:38.302Z,70.77
2023-05-24T01:49:30.590Z,71.99
2023-05-24T01:52:06.064Z,71.59
2023-05-24T01:54:39.638Z,70.97
2023-05-24T01:57:11.572Z,70.80
2023-05-24T01:59:48.289Z,71.22
2023-05-24T02:02:20.961Z,70.49
2023-05-24T02:04:50.977Z,70.10
2023-05-24T02:07:20.876Z,70.24
2023-05-24T02:09:53.137Z,71.01
2023-05-24T02:12:21.847Z,71.35
2023-05-24T02:14:51.000Z,71.80
2023-05-24T02:17:19.123Z,72.36
2023-05-24T02:19:48.909Z,71.93
2023-05-24T02:22:18.567Z,72.38
2023-05-24T02:24:45.567Z,72.95
2023-05-24T02:27:17.519Z,73.04
2023-05-24T02:29:44.632Z,72.91
2023-05-24T02:32:11.899Z,73.32
2023-05-24T02:34:39.284Z,74.04
2023-05-24T02:37:08.889Z,74.42
2023-05-24T02:39:38.962Z,73.91
2023-05-24T02:42:09.148Z,72.80
2023-05-24T02:44:36.176Z,72.80
2023-05-24T02:47:03.329Z,72.21
2023-05-24T02:49:30.652Z,72.84
2023-05-24T02:52:00.453Z,72.74
2023-05-24T02:54:29.611Z,72.67
2023-05-24T02:56:58.683Z,72.72
2023-05-24T02:59:28.217Z,74.47
2023-05-24T03:01:55.364Z,73.54
2023-05-24T03:04:22.398Z,74.16
2023-05-24T03:06:49.386Z,73.46
2023-05-24T03:09:17.100Z,73.07
2023-05-24T03:11:44.078Z,73.37
2023-05-24T03:14:11.381Z,72.35
2023-05-24T03:16:38.780Z,73.50
2023-05-24T03:19:08.451Z,73.99
2023-05-24T03:21:36.827Z,73.92
2023-05-24T03:24:04.010Z,74.42
2023-05-24T03:26:31.686Z,75.62
2023-05-24T03:29:03.289Z,75.17
2023-05-24T03:31:30.289Z,75.56
2023-05-24T03:33:57.331Z,74.59
2023-05-24T03:36:26.328Z,75.56
2023-05-24T03:38:53.417Z,75.79
2023-05-24T03:41:20.416Z,75.02
2023-05-24T03:43:47.295Z,74.94
2023-05-24T03:46:20.255Z,74.10
2023-05-24T03:48:47.971Z,74.60
2023-05-24T03:51:17.919Z,75.08
2023-05-24T03:53:45.988Z,75.17
2023-05-24T03:56:13.060Z,74.40
2023-05-24T03:58:42.660Z,74.17
2023-05-24T04:01:11.157Z,73.35
2023-05-24T04:03:46.102Z,73.98
2023-05-24T04:06:16.227Z,73.18
2023-05-24T04:08:44.661Z,72.94
2023-05-24T04:11:14.272Z,72.67
2023-05-24T04:13:41.321Z,72.42
2023-05-24T04:16:12.572Z,73.48
2023-05-24T04:18:42.036Z,73.08
2023-05-24T04:21:09.632Z,73.78
2023-05-24T04:23:37.029Z,73.28
2023-05-24T04:26:04.341Z,74.95
2023-05-24T04:28:35.969Z,74.75
2023-05-24T04:31:03.398Z,74.25
2023-05-24T04:33:34.547Z,74.04
2023-05-24T04:36:02.122Z,73.94
2023-05-24T04:38:36.213Z,74.49
2023-05-24T04:41:06.908Z,74.39
2023-05-24T04:43:35.229Z,73.06
2023-05-24T04:46:02.560Z,73.58
2023-05-24T04:48:29.670Z,74.31
2023-05-24T04:50:58.464Z,75.18
2023-05-24T04:53:26.053Z,74.24
2023-05-24T04:55:55.767Z,74.73
2023-05-24T04:58:27.467Z,74.43
2023-05-24T05:00:54.436Z,74.62
2023-05-24T05:03:21.591Z,74.42
2023-05-24T05:05:48.684Z,74.94
2023-05-24T05:08:15.736Z,74.78
2023-05-24T05:10:43.365Z,74.96
2023-05-24T05:13:15.225Z,75.21
2023-05-24T05:15:43.165Z,76.24
2023-05-24T05:18:12.314Z,76.43
2023-05-24T05:20:44.022Z,76.77
2023-05-24T05:23:14.285Z,77.11
2023-05-24T05:25:41.339Z,78.13
2023-05-24T05:28:08.246Z,76.58
2023-05-24T05:30:37.270Z,75.85
2023-05-24T05:33:06.146Z,75.79
2023-05-24T05:35:35.512Z,75.48
2023-05-24T05:38:04.866Z,74.63
2023-05-24T05:40:31.934Z,74.38
2023-05-24T05:43:04.555Z,73.96
2023-05-24T05:45:33.986Z,74.19
2023-05-24T05:48:01.272Z,73.80
2023-05-24T05:50:33.054Z,72.92
2023-05-24T05:53:00.158Z,73.17
2023-05-24T05:55:27.134Z,72.64
2023-05-24T05:57:58.562Z,72.56
2023-05-24T06:00:25.818Z,72.14
2023-05-24T06:02:52.904Z,73.02
2023-05-24T06:05:20.031Z,73.67
2023-05-24T06:07:49.045Z,73.25
2023-05-24T06:10:16.054Z,72.83
2023-05-24T06:12:43.004Z,73.55
2023-05-24T06:15:10.583Z,74.37
2023-05-24T06:17:39.777Z,74.54
2023-05-24T06:20:09.296Z,73.97
2023-05-24T06:22:37.642Z,74.21
2023-05-24T06:25:06.114Z,75.16
2023-05-24T06:27:33.114Z,74.50
2023-05-24T06:30:02.855Z,74.16
2023-05-24T06:32:29.826Z,73.70
2023-05-24T06:34:59.029Z,75.34
2023-05-24T06:37:26.082Z,73.71
2023-05-24T06:39:53.152Z,72.31
2023-05-24T06:42:22.760Z,72.83
2023-05-24T06:44:49.917Z,73.07
2023-05-24T06:47:19.658Z,73.03
2023-05-24T06:49:48.923Z,72.50
2023-05-24T06:52:18.226Z,72.98
2023-05-24T06:54:47.851Z,72.34
2023-05-24T06:57:14.987Z,72.26
2023-05-24T06:59:47.534Z,72.46
2023-05-24T07:02:17.335Z,72.96
2023-05-24T07:04:44.396Z,73.09
2023-05-24T07:07:13.273Z,73.07
2023-05-24T07:09:44.511Z,72.93
2023-05-24T07:12:14.188Z,73.97
2023-05-24T07:14:41.566Z,75.29
2023-05-24T07:17:08.721Z,75.73
2023-05-24T07:19:36.182Z,75.65
2023-05-24T07:22:03.278Z,76.76
2023-05-24T07:24:30.262Z,76.49
2023-05-24T07:26:59.910Z,76.47
2023-05-24T07:29:32.260Z,76.79
2023-05-24T07:31:59.324Z,77.09
2023-05-24T07:34:30.047Z,77.56
2023-05-24T07:37:00.755Z,78.00
2023-05-24T07:39:30.614Z,78.63
2023-05-24T07:41:57.693Z,78.84
2023-05-24T07:44:25.048Z,80.75
2023-05-24T07:46:56.089Z,80.99
2023-05-24T07:49:24.053Z,81.43
2023-05-24T07:51:51.226Z,81.49
2023-05-24T07:54:21.619Z,80.40
2023-05-24T07:56:49.266Z,81.92
2023-05-24T07:59:16.426Z,81.64
2023-05-24T08:01:45.989Z,81.50
2023-05-24T08:04:13.370Z,80.22
2023-05-24T08:06:43.852Z,80.15
2023-05-24T08:09:13.466Z,81.07
2023-05-24T08:11:43.100Z,81.16
2023-05-24T08:14:10.179Z,79.90
2023-05-24T08:16:37.451Z,78.64
2023-05-24T08:19:04.676Z,79.90
2023-05-24T08:21:32.109Z,80.47
2023-05-24T08:24:00.228Z,79.03
2023-05-24T08:26:27.425Z,79.46
2023-05-24T08:28:56.823Z,77.65
2023-05-24T08:31:23.996Z,77.58
2023-05-24T08:33:57.775Z,77.13
2023-05-24T08:36:24.867Z,74.46
2023-05-24T08:38:51.874Z,73.66
2023-05-24T08:41:18.939Z,71.98
2023-05-24T08:43:48.060Z,74.15
2023-05-24T08:46:17.638Z,72.94
2023-05-24T08:48:48.551Z,70.71
2023-05-24T08:51:17.160Z,71.59
2023-05-24T08:53:50.922Z,70.59
2023-05-24T08:56:21.813Z,69.29
2023-05-24T08:58:51.093Z,68.62
2023-05-24T09:01:21.454Z,69.49
2023-05-24T09:03:51.090Z,67.51
2023-05-24T09:06:19.562Z,67.93
2023-05-24T09:08:46.612Z,66.68
2023-05-24T09:11:16.681Z,65.16
2023-05-24T09:13:45.968Z,64.07
2023-05-24T09:16:13.113Z,63.23
2023-05-24T09:18:45.720Z,64.10
2023-05-24T09:21:13.476Z,64.66
2023-05-24T09:23:41.986Z,64.93
2023-05-24T09:26:13.783Z,65.39
2023-05-24T09:28:44.326Z,65.49
2023-05-24T09:31:12.393Z,66.64
2023-05-24T09:33:41.932Z,68.00
2023-05-24T09:36:12.337Z,69.00
2023-05-24T09:38:42.158Z,71.69
2023-05-24T09:41:11.604Z,72.39
2023-05-24T09:43:50.901Z,73.43
2023-05-24T09:46:21.870Z,74.32
2023-05-24T09:49:00.146Z,74.43
2023-05-24T09:51:27.899Z,75.29
2023-05-24T09:54:04.365Z,75.07
2023-05-24T09:56:34.262Z,75.08
2023-05-24T09:59:08.309Z,75.05
2023-05-24T10:01:37.830Z,75.50
2023-05-24T10:04:09.905Z,74.94
2023-05-24T10:06:44.433Z,75.71
2023-05-24T10:09:15.081Z,77.06
2023-05-24T10:11:42.402Z,76.24
2023-05-24T10:14:10.787Z,76.61
2023-05-24T10:16:42.670Z,74.82
2023-05-24T10:19:09.818Z,74.30
2023-05-24T10:21:42.779Z,74.70
2023-05-24T10:24:11.449Z,74.29
2023-05-24T10:26:44.406Z,75.85
2023-05-24T10:29:35.261Z,74.69
2023-05-24T10:32:04.556Z,74.90
2023-05-24T10:34:32.006Z,73.49
2023-05-24T10:36:59.837Z,71.17
2023-05-24T10:39:30.551Z,71.19
2023-05-24T10:41:58.026Z,68.28
2023-05-24T10:44:30.428Z,68.60
2023-05-24T10:47:15.699Z,66.82
2023-05-24T10:49:57.829Z,62.70
2023-05-24T10:52:36.109Z,60.41
2023-05-24T10:55:08.700Z,61.57
2023-05-24T10:57:36.891Z,59.75
2023-05-24T11:03:09.506Z,60.12
2023-05-24T11:05:52.989Z,56.63
2023-05-24T11:08:33.760Z,54.69
2023-05-24T11:11:25.501Z,55.11
2023-05-24T11:14:02.133Z,56.01
2023-05-24T11:16:45.718Z,56.40
2023-05-24T11:19:32.590Z,56.35
2023-05-24T11:22:05.180Z,54.63
2023-05-24T11:24:34.114Z,53.89
2023-05-24T11:27:06.241Z,52.40
2023-05-24T11:29:35.334Z,57.76
2023-05-24T11:32:08.012Z,56.64
2023-05-24T11:34:40.112Z,56.70
2023-05-24T11:37:07.782Z,56.43
2023-05-24T11:39:39.945Z,57.16
2023-05-24T11:42:09.831Z,57.67
2023-05-24T11:44:40.527Z,56.61
2023-05-24T11:47:09.020Z,55.77
2023-05-24T11:49:36.231Z,55.04
2023-05-24T11:52:09.159Z,54.57
2023-05-24T11:54:37.459Z,54.21
2023-05-24T11:57:06.381Z,53.09
2023-05-24T11:59:35.854Z,53.15
2023-05-24T12:02:09.209Z,52.93
2023-05-24T12:04:36.388Z,52.81
2023-05-24T12:07:03.918Z,51.02
2023-05-24T12:09:30.967Z,49.78
2023-05-24T12:11:58.718Z,49.46
2023-05-24T12:14:33.307Z,48.13
2023-05-24T12:17:05.155Z,48.95
2023-05-24T12:19:37.229Z,47.76
2023-05-24T12:22:10.673Z,48.35
2023-05-24T12:24:42.519Z,47.42
2023-05-24T12:27:11.508Z,47.45
2023-05-24T12:29:44.112Z,46.62
2023-05-24T12:32:15.516Z,45.28
2023-05-24T12:34:45.519Z,45.40
2023-05-24T12:37:14.310Z,44.27
2023-05-24T12:39:43.476Z,44.33
2023-05-24T12:42:12.231Z,45.54
2023-05-24T12:44:40.081Z,44.86
2023-05-24T12:47:08.862Z,45.05
2023-05-24T12:49:36.697Z,45.51
2023-05-24T12:52:04.254Z,45.89
2023-05-24T12:54:33.557Z,45.88
2023-05-24T12:57:02.826Z,47.32
2023-05-24T12:59:30.140Z,47.28
2023-05-24T13:01:57.671Z,47.60
2023-05-24T13:04:30.656Z,47.81
2023-05-24T13:07:03.379Z,47.76
2023-05-24T13:09:33.574Z,47.96
2023-05-24T13:12:01.477Z,47.56
2023-05-24T13:14:28.606Z,47.51
2023-05-24T13:16:58.037Z,46.84
2023-05-24T13:19:27.608Z,47.64
2023-05-24T13:21:56.881Z,47.07
2023-05-24T13:24:27.813Z,47.15
2023-05-24T13:26:57.808Z,46.46
2023-05-24T13:31:54.978Z,47.48
2023-05-24T13:34:27.169Z,47.16
2023-05-24T13:36:59.967Z,46.71
2023-05-24T13:39:32.534Z,46.99
2023-05-24T13:42:02.279Z,47.11
2023-05-24T13:44:29.550Z,49.53
2023-05-24T13:47:02.459Z,50.44
2023-05-24T13:49:29.912Z,50.89
2023-05-24T13:51:59.558Z,51.46
2023-05-24T13:54:32.192Z,52.81
2023-05-24T13:57:02.803Z,53.35
2023-05-24T13:59:30.226Z,53.35
2023-05-24T14:01:57.582Z,52.13
2023-05-24T14:04:31.543Z,52.24
2023-05-24T14:06:58.574Z,51.85
2023-05-24T14:09:28.245Z,50.99
2023-05-24T14:11:58.161Z,51.71
2023-05-24T14:16:55.371Z,50.13
2023-05-24T14:19:22.660Z,49.25
2023-05-24T14:21:49.818Z,48.98
2023-05-24T14:24:16.960Z,48.45
2023-05-24T14:26:48.611Z,48.37
2023-05-24T14:29:15.609Z,47.88
2023-05-24T14:31:43.322Z,48.37
2023-05-24T14:34:11.615Z,47.76
2023-05-24T14:36:40.609Z,47.86
2023-05-24T14:39:08.501Z,47.34
2023-05-24T14:41:38.073Z,48.35
2023-05-24T14:44:05.342Z,48.41
2023-05-24T14:46:32.472Z,47.33
2023-05-24T14:49:02.413Z,47.30
2023-05-24T14:51:37.070Z,47.54
2023-05-24T14:54:04.646Z,48.45
2023-05-24T14:56:33.715Z,47.72
2023-05-24T14:59:03.748Z,47.06
2023-05-24T15:01:30.914Z,47.72
2023-05-24T15:03:58.055Z,47.57
2023-05-24T15:06:28.078Z,47.69
2023-05-24T15:08:57.154Z,47.79
2023-05-24T15:11:26.775Z,46.93
2023-05-24T15:13:58.454Z,46.97
2023-05-24T15:16:27.099Z,47.13
2023-05-24T15:18:54.485Z,46.75
2023-05-24T15:21:21.486Z,46.70
2023-05-24T15:23:51.207Z,46.31
2023-05-24T15:26:21.121Z,45.82
2023-05-24T15:28:51.585Z,46.31
2023-05-24T15:31:18.908Z,46.55
2023-05-24T15:33:45.869Z,46.46
2023-05-24T15:36:17.230Z,46.83
2023-05-24T15:38:46.538Z,46.85
2023-05-24T15:41:13.708Z,46.48
2023-05-24T15:43:40.662Z,47.47
2023-05-24T15:46:10.707Z,48.00
2023-05-24T15:48:40.350Z,48.12
2023-05-24T15:53:42.573Z,48.70
2023-05-24T15:56:10.245Z,48.78
2023-05-24T15:58:37.262Z,48.13
2023-05-24T16:01:04.258Z,48.51
2023-05-24T16:03:34.492Z,48.69
2023-05-24T16:06:01.625Z,47.43
2023-05-24T16:08:28.695Z,48.44
2023-05-24T16:10:59.659Z,49.82
2023-05-24T16:13:26.932Z,49.60
2023-05-24T16:15:56.672Z,48.94
2023-05-24T16:18:31.635Z,49.66
2023-05-24T16:20:58.751Z,49.11
2023-05-24T16:23:25.892Z,48.75
2023-05-24T16:25:52.915Z,50.25
2023-05-24T16:28:24.689Z,50.19
2023-05-24T16:30:56.632Z,50.04
2023-05-24T16:33:27.205Z,49.83
2023-05-24T16:35:58.149Z,48.88
2023-05-24T16:38:26.586Z,49.54
2023-05-24T16:40:54.104Z,49.47
2023-05-24T16:43:21.791Z,49.35
2023-05-24T16:45:49.102Z,48.98
2023-05-24T16:48:28.271Z,49.22
2023-05-24T16:50:56.691Z,50.05
2023-05-24T16:53:27.908Z,50.82
2023-05-24T16:55:56.223Z,50.63
2023-05-24T16:58:25.214Z,50.72
2023-05-24T17:00:54.457Z,51.74
2023-05-24T17:03:29.002Z,52.17
2023-05-24T17:06:03.286Z,52.32
2023-05-24T17:08:40.277Z,53.21
2023-05-24T17:11:07.670Z,53.20
2023-05-24T17:13:34.782Z,52.76
2023-05-24T17:16:07.030Z,52.49
2023-05-24T17:18:36.652Z,52.12
2023-05-24T17:21:05.895Z,52.13
2023-05-24T17:23:37.563Z,52.59
2023-05-24T17:26:08.271Z,53.41
2023-05-24T17:28:40.846Z,53.88
2023-05-24T17:31:11.626Z,55.80
2023-05-24T17:33:43.108Z,55.68
2023-05-24T17:36:10.279Z,56.57
2023-05-24T17:38:39.886Z,56.35
2023-05-24T17:41:18.372Z,56.66
2023-05-24T17:43:46.749Z,57.39
2023-05-24T17:46:17.585Z,57.36
2023-05-24T17:48:45.899Z,56.87
2023-05-24T17:51:15.185Z,57.51
2023-05-24T17:53:43.591Z,58.51
2023-05-24T17:56:10.940Z,59.14
2023-05-24T17:58:40.447Z,59.96
2023-05-24T18:01:11.654Z,59.05
2023-05-24T18:03:41.746Z,60.54
2023-05-24T18:06:09.678Z,60.18
2023-05-24T18:08:43.552Z,60.09
2023-05-24T18:11:14.035Z,60.63
2023-05-24T18:13:42.567Z,60.29
2023-05-24T18:16:16.207Z,60.05
2023-05-24T18:18:44.069Z,59.88
2023-05-24T18:21:13.024Z,59.43
2023-05-24T18:23:40.273Z,59.79
2023-05-24T18:26:09.521Z,60.03
2023-05-24T18:28:38.971Z,60.65
2023-05-24T18:31:14.745Z,61.11
2023-05-24T18:33:42.339Z,60.89
2023-05-24T18:36:16.876Z,61.10
2023-05-24T18:38:47.613Z,62.39
2023-05-24T18:41:16.586Z,62.40
2023-05-24T18:43:44.566Z,62.55
2023-05-24T18:46:15.371Z,62.98
2023-05-24T18:48:46.079Z,63.56
2023-05-24T18:51:13.675Z,63.65
2023-05-24T18:53:41.107Z,63.95
2023-05-24T18:56:09.528Z,64.75
2023-05-24T18:58:36.851Z,65.01
2023-05-24T19:01:04.208Z,64.93
2023-05-24T19:03:31.634Z,65.33
2023-05-24T19:05:59.317Z,66.20
2023-05-24T19:08:27.382Z,66.95
2023-05-24T19:10:55.067Z,67.24
2023-05-24T19:13:22.158Z,67.34
2023-05-24T19:15:53.758Z,67.71
2023-05-24T19:18:22.108Z,67.14
2023-05-24T19:20:49.111Z,67.19
2023-05-24T19:23:16.451Z,67.70
2023-05-24T19:25:44.054Z,67.81
2023-05-24T19:28:11.564Z,68.83
2023-05-24T19:30:38.510Z,68.90
2023-05-24T19:33:12.983Z,70.04
2023-05-24T19:35:40.204Z,70.33
2023-05-24T19:38:07.551Z,70.43
2023-05-24T19:40:37.031Z,70.85
2023-05-24T19:43:04.093Z,71.42
2023-05-24T19:45:31.093Z,72.41
2023-05-24T19:48:00.312Z,72.11
2023-05-24T19:50:31.436Z,71.80
2023-05-24T19:52:58.890Z,72.70
2023-05-24T19:55:25.996Z,72.16
2023-05-24T19:57:52.936Z,72.89
2023-05-24T20:00:19.960Z,73.39
2023-05-24T20:02:47.095Z,73.21
2023-05-24T20:05:17.408Z,73.12
2023-05-24T20:07:51.418Z,73.16
2023-05-24T20:10:20.733Z,73.20
2023-05-24T20:12:49.945Z,73.55
2023-05-24T20:15:19.717Z,73.65
2023-05-24T20:17:49.240Z,73.42
2023-05-24T20:20:16.397Z,73.41
2023-05-24T20:22:46.088Z,73.47
2023-05-24T20:25:16.752Z,73.61
2023-05-24T20:27:47.012Z,73.44
2023-05-24T20:30:14.707Z,74.28
2023-05-24T20:32:44.154Z,74.52
2023-05-24T20:35:11.718Z,75.00
2023-05-24T20:37:42.087Z,75.42
2023-05-24T20:40:09.830Z,76.39
2023-05-24T20:42:37.067Z,76.95
2023-05-24T20:45:04.762Z,77.19
2023-05-24T20:47:31.851Z,77.95
2023-05-24T20:49:59.727Z,78.38
2023-05-24T20:52:29.211Z,78.08
2023-05-24T20:54:56.554Z,78.68
2023-05-24T20:57:27.562Z,79.02
2023-05-24T20:59:54.954Z,78.14
2023-05-24T21:02:28.989Z,78.09
2023-05-24T21:04:56.800Z,78.62
2023-05-24T21:07:24.445Z,79.43
2023-05-24T21:09:51.561Z,80.31
2023-05-24T21:12:18.583Z,79.75
2023-05-24T21:14:45.633Z,78.67
2023-05-24T21:17:12.737Z,78.89
2023-05-24T21:19:39.708Z,79.63
2023-05-24T21:22:09.236Z,79.17
2023-05-24T21:24:36.332Z,79.33
2023-05-24T21:27:05.989Z,79.91
2023-05-24T21:29:38.021Z,80.82
2023-05-24T21:32:07.395Z,80.64
2023-05-24T21:34:39.370Z,80.04
2023-05-24T21:37:06.421Z,79.76
2023-05-24T21:39:33.606Z,79.56
2023-05-24T21:42:00.626Z,80.08
2023-05-24T21:44:27.757Z,80.21
2023-05-24T21:46:55.810Z,79.41
2023-05-24T21:49:26.032Z,79.82
2023-05-24T21:51:57.749Z,80.74
2023-05-24T21:54:24.947Z,81.32
2023-05-24T21:56:56.673Z,81.53
2023-05-24T21:59:25.869Z,81.36
2023-05-24T22:01:52.835Z,80.88
2023-05-24T22:04:19.897Z,80.96
2023-05-24T22:06:46.888Z,81.37
2023-05-24T22:09:13.887Z,81.28
2023-05-24T22:11:43.599Z,81.45
2023-05-24T22:14:10.944Z,80.97
2023-05-24T22:16:38.021Z,80.76
2023-05-24T22:19:18.344Z,81.01
2023-05-24T22:21:50.316Z,81.99
2023-05-24T22:24:17.445Z,82.18
2023-05-24T22:26:46.774Z,82.29
2023-05-24T22:29:16.810Z,81.93
2023-05-24T22:31:44.015Z,82.49
2023-05-24T22:34:14.410Z,82.50
2023-05-24T22:36:41.485Z,82.46
2023-05-24T22:39:08.536Z,82.60
2023-05-24T22:41:35.553Z,82.57
2023-05-24T22:44:02.493Z,82.43
2023-05-24T22:46:32.063Z,82.05
2023-05-24T22:49:03.031Z,82.27
2023-05-24T22:51:33.009Z,81.89
2023-05-24T22:54:03.221Z,83.39
2023-05-24T22:56:32.296Z,83.56
2023-05-24T22:59:02.258Z,84.49
2023-05-24T23:01:29.382Z,84.78
2023-05-24T23:04:04.714Z,83.76
2023-05-24T23:06:41.866Z,83.86
2023-05-24T23:09:09.086Z,83.53
2023-05-24T23:11:38.166Z,83.05
2023-05-24T23:14:08.983Z,82.08
2023-05-24T23:16:40.330Z,83.07
2023-05-24T23:19:07.325Z,82.84
2023-05-24T23:21:36.947Z,82.96
2023-05-24T23:24:09.544Z,82.68
2023-05-24T23:26:36.730Z,81.75
2023-05-24T23:29:04.032Z,82.40
2023-05-24T23:31:33.646Z,82.61
2023-05-24T23:34:00.589Z,83.42
2023-05-24T23:36:30.725Z,83.09
2023-05-24T23:38:57.731Z,82.85
2023-05-24T23:41:27.317Z,82.69
2023-05-24T23:43:57.392Z,83.17
2023-05-24T23:46:27.227Z,83.39
2023-05-24T23:48:56.523Z,83.61
2023-05-24T23:51:25.999Z,83.15
2023-05-24T23:53:55.318Z,82.18
2023-05-24T23:56:24.529Z,82.99
2023-05-24T23:58:53.685Z,82.36
